Time;durP1;ratioP1;P1;durP2;ratioP2;P2;SDS_P1;SDS_P2;PMS_P1;PMS_P2;Temp;Humidity;BMP_temperature;BMP_pressure;BME280_temperature;BME280_humidity;BME280_pressure;Samples;Min_cycle;Max_cycle;Signal;HPM_P1;HPM_P2
2022/03/15 00:00:51;;;;;;;1999.90;999.90;;;;;;;6.50;40.41;164131.34;4961942;28;20380;-68
2022/03/15 00:03:18;;;;;;;1999.90;999.90;;;;;;;6.39;40.71;164101.16;4966702;28;20046;-68
2022/03/15 00:05:45;;;;;;;1999.90;999.90;;;;;;;6.42;40.66;164108.03;4970023;28;20073;-68
2022/03/15 00:08:12;;;;;;;1999.90;999.90;;;;;;;6.50;39.97;164130.00;4963497;28;20065;-68
2022/03/15 00:10:39;;;;;;;1999.90;999.90;;;;;;;6.50;40.73;164130.00;4971685;28;20356;-68
2022/03/15 00:13:07;;;;;;;1999.90;999.90;;;;;;;6.44;41.14;164114.88;4968344;28;20050;-68
2022/03/15 00:15:35;;;;;;;1999.90;999.90;;;;;;;6.05;40.75;164009.16;4957169;28;20447;-67
2022/03/15 00:18:03;;;;;;;1999.90;999.90;;;;;;;5.75;41.73;163929.50;4972102;28;20404;-67
2022/03/15 00:20:30;;;;;;;1999.90;999.90;;;;;;;5.43;42.65;163845.75;4959062;28;20062;-67
2022/03/15 00:22:59;;;;;;;1999.90;999.90;;;;;;;4.97;44.22;163720.84;4971999;28;20058;-67
2022/03/15 00:25:26;;;;;;;1999.90;999.90;;;;;;;4.63;43.72;163630.31;4959604;28;20066;-68
2022/03/15 00:27:54;;;;;;;1999.90;999.90;;;;;;;4.34;43.64;163553.53;4964985;28;20065;-68
2022/03/15 00:30:22;;;;;;;1999.90;999.90;;;;;;;3.95;44.17;163449.31;4969767;28;20054;-68
2022/03/15 00:32:50;;;;;;;1999.90;999.90;;;;;;;3.97;43.90;163454.78;4956805;28;20046;-67
2022/03/15 00:35:18;;;;;;;1999.90;999.90;;;;;;;4.41;42.53;163572.72;4969784;28;20050;-68
2022/03/15 00:37:46;;;;;;;1999.90;999.90;;;;;;;4.83;42.18;163685.19;4962382;28;20061;-66
2022/03/15 00:40:15;;;;;;;1999.90;999.90;;;;;;;5.41;41.23;163840.25;4966783;28;20056;-67
2022/03/15 00:42:49;;;;;;;1999.90;999.90;;;;;;;5.83;39.76;163951.44;4956259;28;20536;-67
2022/03/15 00:45:16;;;;;;;1999.90;999.90;;;;;;;6.19;40.09;164046.22;4971104;28;20055;-67
2022/03/15 00:47:42;;;;;;;1999.90;999.90;;;;;;;6.37;39.98;164094.28;4972489;28;20596;-67
2022/03/15 00:50:10;;;;;;;1999.90;999.90;;;;;;;6.31;39.60;164080.56;4960497;28;20055;-67
2022/03/15 00:52:37;;;;;;;1999.90;999.90;;;;;;;6.23;40.06;164057.22;4969569;28;20050;-67
2022/03/15 00:55:05;;;;;;;1999.90;999.90;;;;;;;6.26;40.38;164065.47;4954749;28;20077;-67
2022/03/15 00:57:32;;;;;;;1999.90;999.90;;;;;;;6.12;40.95;164029.75;4966725;28;20058;-67
2022/03/15 00:59:59;;;;;;;1999.90;999.90;;;;;;;5.96;41.61;163987.13;4960282;28;20168;-67
2022/03/15 01:02:26;;;;;;;1999.90;999.90;;;;;;;6.01;41.49;163998.16;4969934;28;20042;-67
2022/03/15 01:04:53;;;;;;;1999.90;999.90;;;;;;;6.09;41.87;164020.09;4969189;28;20054;-67
2022/03/15 01:07:19;;;;;;;1999.90;999.90;;;;;;;6.07;42.52;164014.63;4959186;28;20364;-67
2022/03/15 01:09:46;;;;;;;1999.90;999.90;;;;;;;6.02;42.48;164000.94;4967967;28;20070;-67
2022/03/15 01:12:13;;;;;;;1999.90;999.90;;;;;;;5.87;42.75;163961.06;4955828;28;20061;-68
2022/03/15 01:14:39;;;;;;;1999.90;999.90;;;;;;;5.78;43.64;163939.06;4969671;28;20058;-68
2022/03/15 01:17:06;;;;;;;1999.90;999.90;;;;;;;5.71;43.52;163918.50;4958510;28;20046;-67
2022/03/15 01:19:32;;;;;;;1999.90;999.90;;;;;;;5.74;44.33;163926.72;4970021;28;20482;-67
2022/03/15 01:21:59;;;;;;;1999.90;999.90;;;;;;;5.74;43.96;163928.09;4966261;28;20050;-68
2022/03/15 01:24:26;;;;;;;1999.90;999.90;;;;;;;5.59;44.54;163888.28;4957133;28;20051;-67
2022/03/15 01:26:54;;;;;;;1999.90;999.90;;;;;;;5.70;44.17;163915.72;4972375;28;20456;-68
2022/03/15 01:29:22;;;;;;;1999.90;999.90;;;;;;;5.62;43.33;163896.50;4959551;28;20065;-67
2022/03/15 01:31:49;;;;;;;1999.90;999.90;;;;;;;5.44;43.31;163848.47;4969620;28;20376;-68
2022/03/15 01:34:16;;;;;;;1999.90;999.90;;;;;;;5.35;43.78;163822.44;4960695;28;20276;-67
2022/03/15 01:36:43;;;;;;;1999.90;999.90;;;;;;;5.32;42.78;163814.19;4966951;28;20054;-68
2022/03/15 01:39:10;;;;;;;1999.90;999.90;;;;;;;5.21;44.58;163785.34;4958198;28;20055;-67
2022/03/15 01:41:39;;;;;;;1999.90;999.90;;;;;;;5.32;45.05;163815.56;4960045;28;20065;-67
2022/03/15 01:44:16;;;;;;;1999.90;999.90;;;;;;;5.24;45.18;163794.97;4971474;28;20058;-67
2022/03/15 01:46:44;;;;;;;1999.90;999.90;;;;;;;5.25;45.57;163797.69;4959064;28;20436;-68
2022/03/15 01:49:11;;;;;;;1999.90;999.90;;;;;;;5.12;45.73;163762.00;4970335;28;20073;-67
2022/03/15 01:51:48;;;;;;;1999.90;999.90;;;;;;;5.17;45.46;163774.41;4955947;28;20145;-67
2022/03/15 01:54:15;;;;;;;1999.90;999.90;;;;;;;5.04;43.71;163740.06;4965027;28;20054;-67
2022/03/15 01:56:42;;;;;;;1999.90;999.90;;;;;;;5.02;44.63;163734.59;4969732;28;20375;-68
2022/03/15 01:59:11;;;;;;;1999.90;999.90;;;;;;;5.00;45.16;163730.50;4959918;28;20066;-67
2022/03/15 02:01:39;;;;;;;1999.90;999.90;;;;;;;4.79;45.04;163674.19;4970700;28;20055;-68
2022/03/15 02:04:11;;;;;;;1999.90;999.90;;;;;;;4.57;46.00;163616.59;4954679;28;20046;-68
2022/03/15 02:06:41;;;;;;;1999.90;999.90;;;;;;;4.23;47.36;163526.09;4964249;28;20065;-67
2022/03/15 02:09:14;;;;;;;1999.90;999.90;;;;;;;4.07;48.42;163482.22;4958171;28;20057;-67
2022/03/15 02:11:42;;;;;;;1999.90;999.90;;;;;;;4.00;49.18;163463.00;4969317;28;20074;-67
2022/03/15 02:14:09;;;;;;;1999.90;999.90;;;;;;;4.00;49.81;163464.34;4971091;28;20059;-68
2022/03/15 02:16:36;;;;;;;1999.90;999.90;;;;;;;4.18;48.20;163511.00;4956047;28;20456;-67
2022/03/15 02:19:04;;;;;;;1999.90;999.90;;;;;;;4.26;46.80;163531.53;4966065;28;20057;-67
2022/03/15 02:21:32;;;;;;;1999.90;999.90;;;;;;;4.31;45.51;163546.66;4954767;28;20148;-68
2022/03/15 02:23:58;;;;;;;1999.90;999.90;;;;;;;4.33;45.00;163550.75;4968547;28;20058;-67
2022/03/15 02:26:25;;;;;;;1999.90;999.90;;;;;;;4.70;44.20;163649.50;4975152;28;20055;-67
2022/03/15 02:28:52;;;;;;;1999.90;999.90;;;;;;;4.96;43.31;163719.50;4968411;28;20376;-67
2022/03/15 02:31:20;;;;;;;1999.90;999.90;;;;;;;5.28;41.95;163804.56;4969808;28;20305;-67
2022/03/15 02:33:47;;;;;;;1999.90;999.90;;;;;;;5.92;40.86;163974.78;4953760;28;20081;-68
2022/03/15 02:36:15;;;;;;;1999.90;999.90;;;;;;;6.19;40.21;164046.22;4964763;28;20059;-68
2022/03/15 02:38:46;;;;;;;1999.90;999.90;;;;;;;6.51;40.92;164132.75;4960412;28;20066;-68
2022/03/15 02:41:14;;;;;;;1999.90;999.90;;;;;;;6.39;40.68;164099.81;4969513;28;20058;-67
2022/03/15 02:43:42;;;;;;;1999.90;999.90;;;;;;;6.37;40.73;164094.28;4960389;28;20065;-67
2022/03/15 02:46:08;;;;;;;1999.90;999.90;;;;;;;6.27;40.67;164069.56;4965529;28;20038;-68
2022/03/15 02:48:36;;;;;;;1999.90;999.90;;;;;;;6.08;40.86;164017.41;4962756;28;20054;-68
2022/03/15 02:51:08;;;;;;;1999.90;999.90;;;;;;;6.15;39.95;164038.00;4960514;28;20058;-67
2022/03/15 02:53:37;;;;;;;1999.90;999.90;;;;;;;5.90;40.15;163970.66;4970559;28;20085;-67
2022/03/15 02:56:10;;;;;;;1999.90;999.90;;;;;;;5.74;40.82;163926.72;4956796;28;20062;-67
2022/03/15 02:58:40;;;;;;;1999.90;999.90;;;;;;;5.86;41.34;163959.66;4963892;28;20055;-68
2022/03/15 03:01:08;;;;;;;1999.90;999.90;;;;;;;5.53;43.10;163870.47;4954911;28;20609;-68
2022/03/15 03:03:36;;;;;;;1999.90;999.90;;;;;;;5.21;42.31;163785.34;4964629;28;20444;-67
2022/03/15 03:06:03;;;;;;;1999.90;999.90;;;;;;;5.31;42.15;163812.78;4968985;28;20050;-68
2022/03/15 03:08:30;;;;;;;1999.90;999.90;;;;;;;5.48;41.71;163858.09;4959624;28;20066;-67
2022/03/15 03:10:58;;;;;;;1999.90;999.90;;;;;;;5.43;41.70;163845.75;4967992;28;20056;-67
2022/03/15 03:13:26;;;;;;;1999.90;999.90;;;;;;;5.46;41.86;163852.59;4957295;28;20059;-67
2022/03/15 03:15:57;;;;;;;1999.90;999.90;;;;;;;5.70;41.19;163915.72;4963394;28;20047;-67
2022/03/15 03:18:28;;;;;;;1999.90;999.90;;;;;;;5.70;40.98;163915.72;4955592;28;20090;-67
2022/03/15 03:20:55;;;;;;;1999.90;999.90;;;;;;;5.58;41.42;163885.56;4967275;28;20113;-67
2022/03/15 03:23:22;;;;;;;1999.90;999.90;;;;;;;5.27;42.20;163803.19;4968256;28;20055;-67
2022/03/15 03:25:48;;;;;;;1999.90;999.90;;;;;;;5.38;42.08;163830.66;4958978;28;20062;-68
2022/03/15 03:28:16;;;;;;;1999.90;999.90;;;;;;;5.33;41.74;163816.91;4964216;28;20069;-67
2022/03/15 03:30:48;;;;;;;1999.90;999.90;;;;;;;5.29;43.53;163807.31;4953880;28;20368;-67
2022/03/15 03:33:16;;;;;;;1999.90;999.90;;;;;;;5.45;43.73;163849.88;4971673;28;20054;-67
2022/03/15 03:35:43;;;;;;;1999.90;999.90;;;;;;;5.13;44.94;163764.75;4956684;28;20248;-67
2022/03/15 03:38:11;;;;;;;1999.90;999.90;;;;;;;5.27;44.81;163801.84;4973458;28;20308;-67
2022/03/15 03:40:38;;;;;;;1999.90;999.90;;;;;;;5.13;45.09;163764.75;4973047;28;20058;-67
2022/03/15 03:43:06;;;;;;;1999.90;999.90;;;;;;;4.92;45.73;163709.88;4960476;28;20525;-67
2022/03/15 03:45:34;;;;;;;1999.90;999.90;;;;;;;5.03;43.79;163737.31;4967818;28;20057;-67
2022/03/15 03:48:01;;;;;;;1999.90;999.90;;;;;;;5.05;43.73;163742.84;4960034;28;20109;-67
2022/03/15 03:50:27;;;;;;;1999.90;999.90;;;;;;;4.95;43.75;163716.75;4971514;28;20046;-67
2022/03/15 03:52:54;;;;;;;1999.90;999.90;;;;;;;5.29;43.59;163808.66;4970617;28;20047;-67
2022/03/15 03:55:21;;;;;;;1999.90;999.90;;;;;;;5.44;44.01;163848.47;4963345;28;20046;-67
2022/03/15 03:57:48;;;;;;;1999.90;999.90;;;;;;;5.44;44.52;163847.13;4967992;28;20054;-68
2022/03/15 04:00:15;;;;;;;1999.90;999.90;;;;;;;5.34;44.65;163819.66;4954490;28;20475;-68
2022/03/15 04:02:42;;;;;;;1999.90;999.90;;;;;;;5.33;44.05;163816.91;4969912;28;20076;-68
2022/03/15 04:05:09;;;;;;;1999.90;999.90;;;;;;;5.22;43.30;163788.09;4961429;28;20105;-68
2022/03/15 04:07:37;;;;;;;1999.90;999.90;;;;;;;5.09;43.38;163755.19;4971752;28;20407;-68
2022/03/15 04:10:05;;;;;;;1999.90;999.90;;;;;;;5.35;43.04;163823.78;4969728;28;20124;-68
2022/03/15 04:12:33;;;;;;;1999.90;999.90;;;;;;;5.49;42.66;163860.81;4951028;28;20054;-68
2022/03/15 04:15:00;;;;;;;1999.90;999.90;;;;;;;5.53;42.62;163870.47;4970287;28;20452;-68
2022/03/15 04:17:27;;;;;;;1999.90;999.90;;;;;;;5.20;43.00;163783.97;4961183;28;20066;-68
2022/03/15 04:19:53;;;;;;;1999.90;999.90;;;;;;;5.13;42.96;163764.75;4971631;28;20490;-67
2022/03/15 04:22:20;;;;;;;1999.90;999.90;;;;;;;5.47;42.42;163855.34;4960047;28;20051;-68
2022/03/15 04:24:46;;;;;;;1999.90;999.90;;;;;;;5.48;42.69;163858.09;4965581;28;20154;-68
2022/03/15 04:27:14;;;;;;;1999.90;999.90;;;;;;;5.63;42.49;163899.28;4967729;28;20762;-68
2022/03/15 04:29:40;;;;;;;1999.90;999.90;;;;;;;5.62;41.77;163896.50;4961227;28;20487;-68
2022/03/15 04:32:07;;;;;;;1999.90;999.90;;;;;;;5.48;42.12;163858.09;4972352;28;20050;-68
2022/03/15 04:34:34;;;;;;;1999.90;999.90;;;;;;;5.84;41.57;163952.84;4960277;28;20062;-68
2022/03/15 04:37:00;;;;;;;1999.90;999.90;;;;;;;5.73;42.29;163925.38;4972411;28;20348;-68
2022/03/15 04:39:27;;;;;;;1999.90;999.90;;;;;;;5.60;42.71;163889.69;4967195;28;20058;-68
2022/03/15 04:41:55;;;;;;;1999.90;999.90;;;;;;;5.65;42.92;163903.38;4956622;28;20221;-68
2022/03/15 04:44:22;;;;;;;1999.90;999.90;;;;;;;5.43;42.35;163844.34;4970674;28;20058;-68
2022/03/15 04:46:48;;;;;;;1999.90;999.90;;;;;;;5.22;43.11;163789.44;4956116;28;20379;-68
2022/03/15 04:49:15;;;;;;;1999.90;999.90;;;;;;;5.22;43.04;163789.44;4968162;28;20050;-68
2022/03/15 04:51:42;;;;;;;1999.90;999.90;;;;;;;5.19;43.48;163781.22;4959831;28;20047;-68
2022/03/15 04:54:09;;;;;;;1999.90;999.90;;;;;;;5.12;43.70;163762.00;4960419;28;20062;-69
2022/03/15 04:56:37;;;;;;;1999.90;999.90;;;;;;;5.12;43.61;163762.00;4968186;28;20404;-68
2022/03/15 04:59:05;;;;;;;1999.90;999.90;;;;;;;5.15;43.77;163770.28;4959364;28;20058;-68
2022/03/15 05:01:31;;;;;;;1999.90;999.90;;;;;;;5.16;43.21;163773.00;4970390;28;20066;-68
2022/03/15 05:03:59;;;;;;;1999.90;999.90;;;;;;;5.40;43.29;163836.13;4960252;28;20058;-69
2022/03/15 05:06:25;;;;;;;1999.90;999.90;;;;;;;5.51;43.86;163866.34;4963047;28;20681;-68
2022/03/15 05:08:52;;;;;;;1999.90;999.90;;;;;;;5.60;44.70;163889.69;4956283;28;20510;-69
2022/03/15 05:11:19;;;;;;;1999.90;999.90;;;;;;;5.50;45.29;163862.22;4973084;28;20062;-68
2022/03/15 05:13:48;;;;;;;1999.90;999.90;;;;;;;5.44;46.34;163848.47;4966755;28;20053;-68
2022/03/15 05:16:19;;;;;;;1999.90;999.90;;;;;;;5.43;45.91;163844.34;4957887;28;20109;-68
2022/03/15 05:18:52;;;;;;;1999.90;999.90;;;;;;;5.41;45.85;163838.88;4969095;28;20082;-68
2022/03/15 05:21:22;;;;;;;1999.90;999.90;;;;;;;5.37;44.99;163827.88;4949904;28;20066;-68
2022/03/15 05:23:49;;;;;;;1999.90;999.90;;;;;;;5.43;44.39;163844.34;4962949;28;20058;-68
2022/03/15 05:26:17;;;;;;;1999.90;999.90;;;;;;;5.44;44.17;163847.13;4957183;28;20058;-68
2022/03/15 05:28:45;;;;;;;1999.90;999.90;;;;;;;5.47;44.79;163855.34;4970328;28;20339;-68
2022/03/15 05:31:12;;;;;;;1999.90;999.90;;;;;;;5.43;44.01;163844.34;4970533;28;20058;-69
2022/03/15 05:33:39;;;;;;;1999.90;999.90;;;;;;;5.44;44.53;163847.13;4957495;28;20054;-68
2022/03/15 05:36:05;;;;;;;1999.90;999.90;;;;;;;5.21;44.73;163786.75;4961477;28;21254;-69
2022/03/15 05:38:32;;;;;;;1999.90;999.90;;;;;;;5.31;43.92;163811.44;4956979;28;20356;-68
2022/03/15 05:40:59;;;;;;;1999.90;999.90;;;;;;;5.64;43.41;163902.03;4968059;28;20061;-68
2022/03/15 05:43:45;;;;;;;1999.90;999.90;;;;;;;5.96;42.49;163985.75;4969036;28;20128;-68
2022/03/15 05:46:12;;;;;;;1999.90;999.90;;;;;;;5.97;42.57;163989.94;4981549;28;20069;-68
2022/03/15 05:48:39;;;;;;;1999.90;999.90;;;;;;;6.06;41.91;164013.28;4966582;28;20147;-68
2022/03/15 05:51:06;;;;;;;1999.90;999.90;;;;;;;6.21;41.54;164051.69;4953335;28;20066;-69
2022/03/15 05:53:32;;;;;;;1999.90;999.90;;;;;;;6.38;41.49;164097.03;4969891;28;20055;-68
2022/03/15 05:55:59;;;;;;;1999.90;999.90;;;;;;;6.46;41.37;164119.00;4962301;28;20055;-66
2022/03/15 05:58:25;;;;;;;1999.90;999.90;;;;;;;6.43;41.47;164112.16;4967578;28;20059;-66
2022/03/15 06:00:55;;;;;;;1999.90;999.90;;;;;;;6.45;41.15;164116.28;4957338;28;20066;-67
2022/03/15 06:03:22;;;;;;;1999.90;999.90;;;;;;;6.58;41.10;164152.00;4964569;28;20148;-66
2022/03/15 06:05:52;;;;;;;1999.90;999.90;;;;;;;6.59;41.05;164154.69;4964398;28;20051;-66
2022/03/15 06:08:19;;;;;;;1999.90;999.90;;;;;;;6.89;40.80;164234.38;4962696;28;20411;-67
2022/03/15 06:10:46;;;;;;;1999.90;999.90;;;;;;;6.92;40.06;164242.63;4968828;28;20489;-67
2022/03/15 06:13:12;;;;;;;1999.90;999.90;;;;;;;7.15;39.75;164303.13;4959502;28;20050;-67
2022/03/15 06:15:40;;;;;;;1999.90;999.90;;;;;;;7.26;39.27;164331.97;4970476;28;20395;-67
2022/03/15 06:18:07;;;;;;;1999.90;999.90;;;;;;;7.50;39.37;164396.53;4953698;28;20058;-67
2022/03/15 06:20:34;;;;;;;1999.90;999.90;;;;;;;7.34;39.34;164353.91;4964357;28;20158;-67
2022/03/15 06:23:02;;;;;;;1999.90;999.90;;;;;;;7.74;39.46;164462.53;4967904;28;20054;-67
2022/03/15 06:25:30;;;;;;;1999.90;999.90;;;;;;;7.56;39.04;164413.03;4958239;28;20273;-67
2022/03/15 06:27:57;;;;;;;1999.90;999.90;;;;;;;7.37;39.55;164362.22;4965996;28;20474;-67
2022/03/15 06:30:24;;;;;;;1999.90;999.90;;;;;;;7.54;39.13;164408.91;4956112;28;20054;-68
2022/03/15 06:32:51;;;;;;;1999.90;999.90;;;;;;;7.58;38.84;164418.56;4964764;28;20045;-67
2022/03/15 06:35:19;;;;;;;1999.90;999.90;;;;;;;7.36;39.39;164360.81;4960963;28;20051;-67
2022/03/15 06:37:47;;;;;;;1999.90;999.90;;;;;;;7.81;38.81;164480.38;4969965;28;20132;-67
2022/03/15 06:40:19;;;;;;;1999.90;999.90;;;;;;;8.21;38.32;164586.25;4966653;28;20137;-68
2022/03/15 06:42:46;;;;;;;1999.90;999.90;;;;;;;8.41;38.26;164639.88;4964446;28;20046;-68
2022/03/15 06:45:13;;;;;;;1999.90;999.90;;;;;;;8.64;37.51;164703.19;4965070;28;20053;-68
2022/03/15 06:47:41;;;;;;;1999.90;999.90;;;;;;;8.44;37.54;164649.59;4953824;28;20064;-67
2022/03/15 06:50:09;;;;;;;1999.90;999.90;;;;;;;8.10;38.43;164558.75;4968718;28;20082;-67
2022/03/15 06:52:36;;;;;;;1999.90;999.90;;;;;;;8.20;38.15;164583.50;4955937;28;20066;-68
2022/03/15 06:55:03;;;;;;;1999.90;999.90;;;;;;;7.99;38.57;164528.50;4969289;28;20055;-67
2022/03/15 06:57:31;;;;;;;1999.90;999.90;;;;;;;8.29;38.18;164609.66;4960878;28;20112;-68
2022/03/15 06:59:59;;;;;;;1999.90;999.90;;;;;;;8.03;38.38;164539.50;4962932;28;20054;-68
2022/03/15 07:02:27;;;;;;;1999.90;999.90;;;;;;;8.15;38.13;164569.78;4964091;28;20068;-68
2022/03/15 07:04:54;;;;;;;1999.90;999.90;;;;;;;8.27;38.07;164604.13;4957460;28;20051;-68
2022/03/15 07:07:20;;;;;;;1999.90;999.90;;;;;;;8.43;37.87;164645.41;4969835;28;20376;-68
2022/03/15 07:09:47;;;;;;;1999.90;999.90;;;;;;;8.86;37.63;164761.00;4957577;28;20051;-68
2022/03/15 07:12:14;;;;;;;1999.90;999.90;;;;;;;9.07;37.71;164817.38;4967420;28;20346;-68
2022/03/15 07:14:40;;;;;;;1999.90;999.90;;;;;;;9.34;36.78;164890.31;4953130;28;20622;-68
2022/03/15 07:17:07;;;;;;;1999.90;999.90;;;;;;;9.22;36.52;164855.94;4968019;28;20290;-68
2022/03/15 07:19:33;;;;;;;1999.90;999.90;;;;;;;8.75;38.20;164730.72;4969233;28;20066;-68
2022/03/15 07:22:00;;;;;;;1999.90;999.90;;;;;;;9.43;37.16;164913.69;4958606;28;20058;-68
2022/03/15 07:24:26;;;;;;;1999.90;999.90;;;;;;;9.56;36.49;164946.72;4968775;28;20510;-68
2022/03/15 07:26:53;;;;;;;1999.90;999.90;;;;;;;9.57;36.72;164949.47;4957048;28;20065;-68
2022/03/15 07:29:19;;;;;;;1999.90;999.90;;;;;;;9.39;36.47;164901.31;4964396;28;20401;-68
2022/03/15 07:31:46;;;;;;;1999.90;999.90;;;;;;;9.75;36.19;164999.06;4967652;28;20050;-68
2022/03/15 07:34:13;;;;;;;1999.90;999.90;;;;;;;9.92;36.58;165043.09;4960847;28;20046;-68
2022/03/15 07:36:39;;;;;;;1999.90;999.90;;;;;;;10.01;35.94;165069.22;4968542;28;21227;-68
2022/03/15 07:39:06;;;;;;;1999.90;999.90;;;;;;;9.78;36.49;165005.91;4958428;28;20392;-68
2022/03/15 07:41:34;;;;;;;1999.90;999.90;;;;;;;10.15;35.75;165106.44;4964041;28;20189;-68
2022/03/15 07:44:01;;;;;;;1999.90;999.90;;;;;;;10.10;35.95;165092.63;4954985;28;20466;-68
2022/03/15 07:46:27;;;;;;;1999.90;999.90;;;;;;;10.63;35.18;165233.13;4968094;28;20067;-68
2022/03/15 07:48:54;;;;;;;1999.90;999.90;;;;;;;10.88;34.70;165302.03;4970415;28;20053;-68
2022/03/15 07:51:21;;;;;;;1999.90;999.90;;;;;;;11.17;34.39;165379.16;4958743;28;20065;-68
2022/03/15 07:53:53;;;;;;;1999.90;999.90;;;;;;;11.38;34.22;165434.28;4967478;28;20153;-68
2022/03/15 07:56:19;;;;;;;1999.90;999.90;;;;;;;11.67;34.06;165511.44;4949788;28;20057;-68
2022/03/15 07:58:45;;;;;;;1999.90;999.90;;;;;;;11.40;34.16;165439.78;4965699;28;20352;-68
2022/03/15 08:01:12;;;;;;;1999.90;999.90;;;;;;;11.37;34.19;165432.94;4958558;28;20818;-68
2022/03/15 08:03:39;;;;;;;1999.90;999.90;;;;;;;11.74;33.97;165530.75;4965183;28;20073;-68
2022/03/15 08:06:05;;;;;;;1999.90;999.90;;;;;;;11.97;33.67;165592.84;4967320;28;20149;-69
2022/03/15 08:08:32;;;;;;;1999.90;999.90;;;;;;;11.44;34.69;165452.16;4952211;28;20062;-68
2022/03/15 08:10:58;;;;;;;1999.90;999.90;;;;;;;11.65;34.69;165505.94;4963374;28;20058;-69
2022/03/15 08:13:25;;;;;;;1999.90;999.90;;;;;;;11.24;35.24;165397.09;4954392;28;20217;-69
2022/03/15 08:15:52;;;;;;;1999.90;999.90;;;;;;;11.20;34.66;165387.44;4966892;28;20077;-69
2022/03/15 08:18:19;;;;;;;1999.90;999.90;;;;;;;10.79;35.81;165277.22;4955752;28;20050;-68
2022/03/15 08:20:46;;;;;;;1999.90;999.90;;;;;;;11.68;35.17;165515.56;4970327;28;20054;-69
2022/03/15 08:23:13;;;;;;;1999.90;999.90;;;;;;;11.98;34.39;165596.97;4980304;28;20050;-68
2022/03/15 08:25:39;;;;;;;1999.90;999.90;;;;;;;11.56;34.59;165483.88;4955523;28;20342;-69
2022/03/15 08:28:06;;;;;;;1999.90;999.90;;;;;;;12.10;34.61;165627.25;4972136;28;20062;-69
2022/03/15 08:30:33;;;;;;;1999.90;999.90;;;;;;;11.25;35.79;165401.22;4961105;28;20065;-69
2022/03/15 08:32:59;;;;;;;1999.90;999.90;;;;;;;11.77;34.85;165539.00;4971425;28;20065;-69
2022/03/15 08:35:26;;;;;;;1999.90;999.90;;;;;;;11.61;34.99;165496.28;4960426;28;20443;-69
2022/03/15 08:37:53;;;;;;;1999.90;999.90;;;;;;;11.59;35.43;165492.13;4968876;28;20054;-69
2022/03/15 08:40:21;;;;;;;1999.90;999.90;;;;;;;11.89;35.01;165570.72;4967375;28;20532;-69
2022/03/15 08:42:48;;;;;;;1999.90;999.90;;;;;;;11.74;35.47;165530.75;4960903;28;20063;-69
2022/03/15 08:45:15;;;;;;;1999.90;999.90;;;;;;;12.89;33.85;165839.59;4970719;28;20057;-69
2022/03/15 08:47:42;;;;;;;1999.90;999.90;;;;;;;13.32;33.57;165954.09;4959624;28;20151;-68
2022/03/15 08:50:13;;;;;;;1999.90;999.90;;;;;;;14.06;32.87;166154.22;4971355;28;20433;-68
2022/03/15 08:52:40;;;;;;;1999.90;999.90;;;;;;;13.19;33.57;165919.66;4951965;28;20055;-69
2022/03/15 08:55:06;;;;;;;1999.90;999.90;;;;;;;13.39;33.23;165974.84;4969023;28;20061;-68
2022/03/15 08:57:33;;;;;;;1999.90;999.90;;;;;;;13.73;33.81;166064.53;4970038;28;20088;-69
2022/03/15 09:00:00;;;;;;;1999.90;999.90;;;;;;;13.96;33.09;166126.63;4962236;28;20058;-68
2022/03/15 09:02:26;;;;;;;1999.90;999.90;;;;;;;14.18;32.59;166184.59;4971091;28;20457;-66
2022/03/15 09:04:53;;;;;;;1999.90;999.90;;;;;;;14.31;32.55;166220.50;4952965;28;20462;-68
2022/03/15 09:07:19;;;;;;;1999.90;999.90;;;;;;;13.32;33.52;165955.50;4966652;28;20367;-68
2022/03/15 09:09:46;;;;;;;1999.90;999.90;;;;;;;13.74;33.64;166068.69;4956049;28;20474;-68
2022/03/15 09:12:13;;;;;;;1999.90;999.90;;;;;;;13.98;33.15;166130.75;4971551;28;20110;-68
2022/03/15 09:14:39;;;;;;;1999.90;999.90;;;;;;;13.67;33.49;166048.00;4971895;28;20062;-68
2022/03/15 09:17:06;;;;;;;1999.90;999.90;;;;;;;13.41;34.45;165977.59;4957988;28;20058;-68
2022/03/15 09:19:33;;;;;;;1999.90;999.90;;;;;;;14.30;33.41;166217.72;4964968;28;20078;-67
2022/03/15 09:22:04;;;;;;;1999.90;999.90;;;;;;;14.89;32.56;166375.19;4955344;28;20066;-67
2022/03/15 09:24:33;;;;;;;1999.90;999.90;;;;;;;14.82;32.75;166357.22;4971503;28;20054;-68
2022/03/15 09:26:59;;;;;;;1999.90;999.90;;;;;;;13.62;33.81;166035.59;4963425;28;20527;-67
2022/03/15 09:29:26;;;;;;;1999.90;999.90;;;;;;;14.01;34.46;166140.44;4970474;28;20058;-67
2022/03/15 09:31:53;;;;;;;1999.90;999.90;;;;;;;14.61;33.60;166300.63;4971392;28;20047;-68
2022/03/15 09:34:22;;;;;;;1999.90;999.90;;;;;;;14.79;32.86;166350.28;4956058;28;20074;-67
2022/03/15 09:36:49;;;;;;;1999.90;999.90;;;;;;;15.74;31.26;166604.44;4966934;28;20050;-67
2022/03/15 09:39:16;;;;;;;1999.90;999.90;;;;;;;14.74;31.93;166336.50;4957232;28;20058;-67
2022/03/15 09:41:44;;;;;;;1999.90;999.90;;;;;;;15.48;32.02;166535.41;4971727;28;20073;-67
2022/03/15 09:44:11;;;;;;;1999.90;999.90;;;;;;;15.12;31.56;166438.72;4959348;28;20404;-69
2022/03/15 09:46:42;;;;;;;1999.90;999.90;;;;;;;15.03;32.01;166412.47;4965004;28;20061;-67
2022/03/15 09:49:24;;;;;;;1999.90;999.90;;;;;;;15.88;30.90;166640.44;4966289;28;20066;-69
2022/03/15 09:51:54;;;;;;;1999.90;999.90;;;;;;;16.01;31.03;166677.72;4959051;28;20053;-69
2022/03/15 09:54:22;;;;;;;1999.90;999.90;;;;;;;16.22;30.41;166733.00;4969411;28;20046;-69
2022/03/15 09:56:49;;;;;;;1999.90;999.90;;;;;;;16.20;30.12;166728.84;4958682;28;20054;-69
2022/03/15 09:59:18;;;;;;;1999.90;999.90;;;;;;;16.95;29.08;166927.97;4968338;28;20340;-68
2022/03/15 10:01:50;;;;;;;1999.90;999.90;;;;;;;15.90;30.53;166647.34;4951227;28;20059;-68
2022/03/15 10:04:17;;;;;;;;;;;;;;;16.04;30.76;166684.63;4965486;28;20523;-68
2022/03/15 10:06:44;;;;;;;1999.90;999.90;;;;;;;16.02;31.90;166680.50;4960857;28;19929;-69
2022/03/15 10:09:11;;;;;;;1999.90;999.90;;;;;;;15.37;31.55;166503.63;4968229;28;20065;-69
2022/03/15 10:11:38;;;;;;;1999.90;999.90;;;;;;;15.81;31.15;166622.50;4967820;28;20058;-67
2022/03/15 10:14:05;;;;;;;1999.90;999.90;;;;;;;15.81;31.12;166623.84;4955949;28;20062;-67
2022/03/15 10:16:34;;;;;;;1999.90;999.90;;;;;;;16.35;31.38;166767.56;4965537;28;20069;-67
2022/03/15 10:19:02;;;;;;;1999.90;999.90;;;;;;;16.41;31.06;166784.16;4954311;28;20054;-68
2022/03/15 10:21:50;;;;;;;1999.90;999.90;;;;;;;17.40;29.79;167051.03;4968025;28;20062;-68
2022/03/15 10:24:38;;;;;;;1999.90;999.90;;;;;;;17.36;29.19;167039.94;4961906;28;20485;-68
2022/03/15 10:27:06;;;;;;;1999.90;999.90;;;;;;;17.81;29.20;167160.28;4967654;28;20063;-67
2022/03/15 10:29:34;;;;;;;1999.90;999.90;;;;;;;16.94;29.13;166925.19;4964725;28;20063;-67
2022/03/15 10:32:04;;;;;;;1999.90;999.90;;;;;;;17.30;29.78;167021.94;4954409;28;20070;-68
2022/03/15 10:34:31;;;;;;;1999.90;999.90;;;;;;;16.46;29.83;166797.94;4967804;28;20157;-69
2022/03/15 10:36:57;;;;;;;1999.90;999.90;;;;;;;16.02;30.98;166679.13;4961920;28;20467;-68
2022/03/15 10:39:25;;;;;;;1999.90;999.90;;;;;;;16.82;30.12;166894.72;4967972;28;20054;-68
2022/03/15 10:41:55;;;;;;;1999.90;999.90;;;;;;;16.97;30.23;166933.47;4959011;28;20050;-68
2022/03/15 10:44:24;;;;;;;1999.90;999.90;;;;;;;16.91;29.86;166918.25;4963856;28;20389;-67
2022/03/15 10:47:08;;;;;;;1999.90;999.90;;;;;;;17.38;30.25;167044.09;4960311;28;20058;-68
2022/03/15 10:49:54;;;;;;;1999.90;999.90;;;;;;;16.79;30.37;166886.44;4969501;28;20227;-68
2022/03/15 10:52:31;;;;;;;1999.90;999.90;;;;;;;17.02;30.48;166947.31;4971696;28;20344;-68
2022/03/15 10:55:14;;;;;;;1999.90;999.90;;;;;;;18.65;28.81;167387.22;4963788;28;20408;-68